Groves, North Carolina
Current Conditions -  °F | °C
As of 6:54 AM on Thursday 27 Nov 2014 (Local Time) from KAKH Reporting Station
Clear Clear  
Wind Chill: 33°   Ceiling: Unl
Heat Index: 33°   Visibility: 10mi
Dew Point: 29°   Wind: 3mph
Humidity: 85%   Direction: 260°W
Pressure: 29.99"   Gusts: NA
Location:  35.2205°N, 81.2501°W
Report Text: KAKH 271154Z AUTO 26003KT 10SM CLR 01/M02 A2999 RMK AO2 SLP159 60000 70033 T00061017 10056 20006 53006
Loading
Personal Weather Stations






























Interactive Weather Map New forecast layout! Learn more

10-Day Weather Forecast

Advertisements
Track Severe Weather on mobile